Terminal Aerodrome Forecast
Issued by NWS

Home | Current Version | Previous Version | Text Only | Print | Product List | Glossary On
Versions: 1 2 3 4 5 6 7 8 9 10 11 12 13 14 15 16 17 18
000
FTUS43 KJKL 151738
TAFSME
TAF
KSME 151738Z 1518/1618 VRB03KT P6SM -DZ OVC006
     FM151900 VRB03KT P6SM VCSH OVC008
     FM160500 VRB03KT 3SM BR OVC003
     FM161500 VRB03KT P6SM BKN015
     FM161700 17004KT P6SM BKN030=

USA.gov is the U.S. government's official web portal to all federal, state and local government web resources and services.